createdAt,value
2022-08-26T00:00:11.124Z,101055.63
2022-08-26T00:02:41.335Z,101055.75
2022-08-26T00:05:09.882Z,101063.75
2022-08-26T00:07:37.843Z,101067.50
2022-08-26T00:10:07.528Z,101071.47
2022-08-26T00:12:37.435Z,101064.59
2022-08-26T00:15:10.789Z,101054.16
2022-08-26T00:17:40.326Z,101052.56
2022-08-26T00:20:14.030Z,101052.06
2022-08-26T00:22:42.563Z,101053.31
2022-08-26T00:25:13.095Z,101065.00
2022-08-26T00:27:43.938Z,101059.75
2022-08-26T00:30:17.411Z,101060.53
2022-08-26T00:32:50.764Z,101063.31
2022-08-26T00:35:20.644Z,101059.09
2022-08-26T00:37:48.691Z,101050.47
2022-08-26T00:40:22.204Z,101053.16
2022-08-26T00:42:50.071Z,101039.47
2022-08-26T00:45:19.354Z,101040.94
2022-08-26T00:47:51.233Z,101040.19
2022-08-26T00:50:26.856Z,101046.75
2022-08-26T00:52:58.576Z,101044.94
2022-08-26T00:55:38.254Z,101049.56
2022-08-26T00:58:09.393Z,101053.50
2022-08-26T01:00:37.386Z,101047.00
2022-08-26T01:03:05.806Z,101052.16
2022-08-26T01:05:42.485Z,101041.63
2022-08-26T01:08:10.295Z,101046.88
2022-08-26T01:10:38.183Z,101037.50
2022-08-26T01:13:11.861Z,101043.13
2022-08-26T01:15:45.896Z,101044.03
2022-08-26T01:18:15.985Z,101045.25
2022-08-26T01:20:58.100Z,101048.25
2022-08-26T01:23:57.700Z,101047.28
2022-08-26T01:26:31.380Z,101047.59
2022-08-26T01:29:05.245Z,101045.25
2022-08-26T01:31:39.473Z,101050.25
2022-08-26T01:34:16.583Z,101048.38
2022-08-26T01:36:51.041Z,101047.41
2022-08-26T01:39:21.545Z,101038.06
2022-08-26T01:41:54.351Z,101035.13
2022-08-26T01:44:28.788Z,101042.00
2022-08-26T01:47:00.231Z,101029.44
2022-08-26T01:49:29.692Z,101031.00
2022-08-26T01:52:00.534Z,101025.16
2022-08-26T01:54:29.874Z,101030.53
2022-08-26T01:56:58.824Z,101030.13
2022-08-26T01:59:27.196Z,101032.38
2022-08-26T02:01:55.404Z,101030.31
2022-08-26T02:04:30.924Z,101029.47
2022-08-26T02:06:59.654Z,101026.09
2022-08-26T02:09:29.589Z,101023.19
2022-08-26T02:12:01.642Z,101034.06
2022-08-26T02:14:35.679Z,101026.81
2022-08-26T02:17:12.891Z,101032.06
2022-08-26T02:19:46.152Z,101019.06
2022-08-26T02:22:19.795Z,101025.00
2022-08-26T02:24:52.911Z,101025.41
2022-08-26T02:27:24.724Z,101019.63
2022-08-26T02:29:59.594Z,101012.97
2022-08-26T02:32:29.172Z,101016.72
2022-08-26T02:34:57.028Z,101011.88
2022-08-26T02:37:30.244Z,101022.16
2022-08-26T02:39:59.694Z,101010.97
2022-08-26T02:42:28.401Z,101017.97
2022-08-26T02:44:56.405Z,101017.03
2022-08-26T02:47:25.324Z,101016.53
2022-08-26T02:49:56.921Z,101012.63
2022-08-26T02:52:25.387Z,101011.47
2022-08-26T02:54:53.607Z,101007.53
2022-08-26T02:57:22.932Z,101000.50
2022-08-26T02:59:52.280Z,101002.16
2022-08-26T03:02:21.396Z,101001.56
2022-08-26T03:04:57.911Z,101004.56
2022-08-26T03:07:30.039Z,101007.97
2022-08-26T03:09:58.042Z,101005.34
2022-08-26T03:12:27.798Z,101009.31
2022-08-26T03:14:56.306Z,101005.59
2022-08-26T03:17:24.509Z,100996.63
2022-08-26T03:19:57.363Z,100997.81
2022-08-26T03:22:27.011Z,100996.81
2022-08-26T03:24:55.495Z,100991.50
2022-08-26T03:27:23.365Z,100992.81
2022-08-26T03:30:11.895Z,100994.53
2022-08-26T03:32:41.402Z,100990.66
2022-08-26T03:35:10.538Z,100994.75
2022-08-26T03:37:38.697Z,100985.31
2022-08-26T03:40:10.384Z,100994.59
2022-08-26T03:42:39.983Z,100989.69
2022-08-26T03:45:11.970Z,100983.50
2022-08-26T03:47:40.671Z,100982.13
2022-08-26T03:50:14.069Z,100994.25
2022-08-26T03:52:44.024Z,100983.97
2022-08-26T03:55:12.830Z,100988.94
2022-08-26T03:57:42.021Z,100985.59
2022-08-26T04:00:18.431Z,100986.75
2022-08-26T04:02:53.230Z,100988.59
2022-08-26T04:05:23.982Z,100990.38
2022-08-26T04:07:52.518Z,100980.88
2022-08-26T04:10:28.612Z,100985.50
2022-08-26T04:12:59.269Z,100979.94
2022-08-26T04:15:29.316Z,100972.81
2022-08-26T04:17:57.686Z,100973.09
2022-08-26T04:20:26.315Z,100966.88
2022-08-26T04:22:54.489Z,100973.53
2022-08-26T04:25:22.566Z,100983.16
2022-08-26T04:27:52.186Z,100981.03
2022-08-26T04:30:21.203Z,100979.78
2022-08-26T04:32:50.774Z,100981.03
2022-08-26T04:35:20.914Z,100974.47
2022-08-26T04:37:53.392Z,100980.03
2022-08-26T04:40:21.700Z,100975.44
2022-08-26T04:42:50.249Z,100981.81
2022-08-26T04:45:19.352Z,100972.81
2022-08-26T04:47:56.244Z,100970.50
2022-08-26T04:50:25.718Z,100971.84
2022-08-26T04:52:55.374Z,100980.19
2022-08-26T04:55:25.270Z,100979.81
2022-08-26T04:58:08.750Z,100979.81
2022-08-26T05:00:39.429Z,100979.22
2022-08-26T05:03:10.270Z,100978.31
2022-08-26T05:05:41.123Z,100981.03
2022-08-26T05:08:09.975Z,100984.69
2022-08-26T05:10:41.971Z,100983.22
2022-08-26T05:13:15.458Z,100985.97
2022-08-26T05:15:44.998Z,100992.19
2022-08-26T05:18:17.365Z,100986.94
2022-08-26T05:20:51.710Z,100987.81
2022-08-26T05:23:23.461Z,100985.50
2022-08-26T05:25:58.922Z,100989.91
2022-08-26T05:28:29.645Z,100992.34
2022-08-26T05:30:57.846Z,101000.53
2022-08-26T05:33:27.209Z,100990.88
2022-08-26T05:35:55.056Z,100995.88
2022-08-26T05:38:23.397Z,101002.16
2022-08-26T05:40:53.193Z,100992.94
2022-08-26T05:43:22.469Z,100999.69
2022-08-26T05:45:51.971Z,100995.91
2022-08-26T05:48:22.841Z,100988.38
2022-08-26T05:50:54.463Z,100983.28
2022-08-26T05:53:26.120Z,100983.53
2022-08-26T05:55:56.591Z,100987.66
2022-08-26T05:58:27.498Z,100986.53
2022-08-26T06:01:02.940Z,100989.03
2022-08-26T06:03:33.336Z,100989.84
2022-08-26T06:06:07.385Z,100990.31
2022-08-26T06:08:36.606Z,100976.81
2022-08-26T06:11:08.036Z,100987.00
2022-08-26T06:13:47.261Z,100980.28
2022-08-26T06:16:19.462Z,100975.56
2022-08-26T06:18:50.630Z,100982.13
2022-08-26T06:21:23.361Z,100980.72
2022-08-26T06:24:13.581Z,100985.09
2022-08-26T06:26:43.879Z,100979.72
2022-08-26T06:29:24.046Z,100977.81
2022-08-26T06:31:53.638Z,100970.72
2022-08-26T06:34:21.626Z,100972.94
2022-08-26T06:36:52.236Z,100973.03
2022-08-26T06:39:21.046Z,100967.19
2022-08-26T06:41:49.565Z,100969.38
2022-08-26T06:44:17.447Z,100966.81
2022-08-26T06:46:45.927Z,100969.59
2022-08-26T06:49:18.364Z,100970.69
2022-08-26T06:51:58.222Z,100974.41
2022-08-26T06:54:26.904Z,100967.91
2022-08-26T06:56:56.778Z,100969.38
2022-08-26T06:59:24.890Z,100966.91
2022-08-26T07:01:53.336Z,100968.69
2022-08-26T07:04:23.076Z,100968.69
2022-08-26T07:06:53.821Z,100963.75
2022-08-26T07:09:26.346Z,100969.28
2022-08-26T07:11:56.139Z,100973.81
2022-08-26T07:14:25.259Z,100960.53
2022-08-26T07:16:54.721Z,100963.56
2022-08-26T07:19:30.929Z,100962.50
2022-08-26T07:22:02.074Z,100958.28
2022-08-26T07:24:32.248Z,100961.56
2022-08-26T07:27:02.773Z,100953.53
2022-08-26T07:29:31.247Z,100950.19
2022-08-26T07:31:59.935Z,100956.72
2022-08-26T07:34:27.965Z,100952.53
2022-08-26T07:36:57.007Z,100948.91
2022-08-26T07:39:25.957Z,100945.25
2022-08-26T07:41:55.274Z,100936.22
2022-08-26T07:44:24.038Z,100934.41
2022-08-26T07:46:53.339Z,100944.13
2022-08-26T07:49:22.917Z,100955.78
2022-08-26T07:51:51.858Z,100942.66
2022-08-26T07:54:20.623Z,100947.81
2022-08-26T07:56:56.492Z,100935.69
2022-08-26T07:59:24.819Z,100932.00
2022-08-26T08:01:52.893Z,100934.25
2022-08-26T08:04:26.070Z,100933.22
2022-08-26T08:06:55.033Z,100935.84
2022-08-26T08:09:24.737Z,100928.53
2022-08-26T08:11:53.827Z,100939.03
2022-08-26T08:14:23.252Z,100939.38
2022-08-26T08:16:54.866Z,100925.81
2022-08-26T08:19:23.765Z,100925.53
2022-08-26T08:21:55.211Z,100943.09
2022-08-26T08:24:23.091Z,100934.41
2022-08-26T08:27:23.897Z,100938.91
2022-08-26T08:29:55.134Z,100929.91
2022-08-26T08:32:23.957Z,100932.88
2022-08-26T08:34:51.856Z,100921.06
2022-08-26T08:37:20.088Z,100926.25
2022-08-26T08:39:48.974Z,100919.41
2022-08-26T08:42:45.342Z,100921.16
2022-08-26T08:45:22.728Z,100917.63
2022-08-26T08:47:56.280Z,100911.44
2022-08-26T08:50:29.986Z,100917.44
2022-08-26T08:53:22.659Z,100912.75
2022-08-26T08:56:04.828Z,100911.56
2022-08-26T08:58:52.421Z,100907.28
2022-08-26T09:01:36.110Z,100904.19
2022-08-26T09:04:32.062Z,100900.38
2022-08-26T09:07:03.715Z,100901.31
2022-08-26T09:09:39.327Z,100893.78
2022-08-26T09:12:16.038Z,100899.25
2022-08-26T09:14:45.124Z,100892.16
2022-08-26T09:17:26.999Z,100898.25
2022-08-26T09:20:07.958Z,100899.63
2022-08-26T09:22:40.065Z,100904.28
2022-08-26T09:25:15.723Z,100899.97
2022-08-26T09:27:47.712Z,100898.91
2022-08-26T09:30:27.047Z,100893.78
2022-08-26T09:33:10.142Z,100887.06
2022-08-26T09:35:42.879Z,100894.53
2022-08-26T09:38:26.702Z,100887.56
2022-08-26T09:40:59.148Z,100892.09
2022-08-26T09:43:29.032Z,100885.75
2022-08-26T09:46:15.448Z,100877.31
2022-08-26T09:48:44.787Z,100870.50
2022-08-26T09:51:31.046Z,100872.75
2022-08-26T09:54:02.676Z,100861.94
2022-08-26T09:56:34.397Z,100861.50
2022-08-26T09:59:04.628Z,100865.47
2022-08-26T10:01:41.896Z,100851.22
2022-08-26T10:04:14.907Z,100846.00
2022-08-26T10:06:57.330Z,100836.38
2022-08-26T10:09:28.163Z,100831.63
2022-08-26T10:12:01.862Z,100817.31
2022-08-26T10:14:36.323Z,100822.63
2022-08-26T10:17:12.109Z,100816.09
2022-08-26T10:19:56.791Z,100824.13
2022-08-26T10:22:36.183Z,100818.53
2022-08-26T10:25:12.959Z,100807.13
2022-08-26T10:27:53.382Z,100800.72
2022-08-26T10:30:28.529Z,100792.47
2022-08-26T10:33:05.682Z,100791.19
2022-08-26T10:35:44.011Z,100790.66
2022-08-26T10:38:19.494Z,100785.91
2022-08-26T10:40:58.959Z,100772.72
2022-08-26T10:43:31.617Z,100780.78
2022-08-26T10:46:06.929Z,100770.91
2022-08-26T10:48:44.846Z,100771.38
2022-08-26T10:51:17.523Z,100759.56
2022-08-26T10:53:58.207Z,100755.44
2022-08-26T10:56:42.576Z,100744.94
2022-08-26T10:59:19.601Z,100740.69
2022-08-26T11:01:58.582Z,100738.72
2022-08-26T11:04:48.198Z,100731.78
2022-08-26T11:07:43.832Z,100733.63
2022-08-26T11:10:58.865Z,100724.81
2022-08-26T11:14:02.030Z,100723.94
2022-08-26T11:16:37.264Z,100733.53
2022-08-26T11:19:58.938Z,100738.03
2022-08-26T11:22:28.596Z,100738.97
2022-08-26T11:25:13.575Z,100726.22
2022-08-26T11:28:05.078Z,100717.44
2022-08-26T11:30:56.830Z,100707.75
2022-08-26T11:33:57.934Z,100690.94
2022-08-26T11:36:59.016Z,100695.41
2022-08-26T11:39:36.913Z,100699.38
2022-08-26T11:42:33.163Z,100733.25
2022-08-26T11:45:18.086Z,100772.69
2022-08-26T11:47:46.874Z,100774.75
2022-08-26T11:50:23.324Z,100775.47
2022-08-26T11:53:01.565Z,100771.38
2022-08-26T11:55:30.849Z,100765.78
2022-08-26T11:58:04.859Z,100768.00
2022-08-26T12:00:53.091Z,100791.41
2022-08-26T12:03:26.788Z,100792.03
2022-08-26T12:05:55.490Z,100790.00
2022-08-26T12:08:31.082Z,100790.97
2022-08-26T12:11:09.413Z,100789.13
2022-08-26T12:13:39.172Z,100797.41
2022-08-26T12:16:08.927Z,100809.66
2022-08-26T12:18:39.889Z,100828.09
2022-08-26T12:21:24.378Z,100838.09
2022-08-26T12:23:55.802Z,100834.94
2022-08-26T12:26:28.915Z,100823.22
2022-08-26T12:29:02.297Z,100809.88
2022-08-26T12:31:44.862Z,100807.00
2022-08-26T12:34:18.452Z,100818.78
2022-08-26T12:36:50.728Z,100823.44
2022-08-26T12:39:28.116Z,100830.09
2022-08-26T12:41:58.408Z,100825.97
2022-08-26T12:44:35.799Z,100836.00
2022-08-26T12:47:10.411Z,100827.59
2022-08-26T12:49:40.671Z,100837.69
2022-08-26T12:52:29.954Z,100841.19
2022-08-26T12:55:01.227Z,100847.47
2022-08-26T12:57:35.093Z,100861.47
2022-08-26T13:00:30.252Z,100871.44
2022-08-26T13:03:01.778Z,100875.88
2022-08-26T13:05:35.489Z,100866.97
2022-08-26T13:08:25.810Z,100861.56
2022-08-26T13:11:10.358Z,100858.31
2022-08-26T13:13:40.339Z,100854.53
2022-08-26T13:16:09.033Z,100857.97
2022-08-26T13:18:38.720Z,100860.34
2022-08-26T13:21:13.986Z,100845.09
2022-08-26T13:23:42.610Z,100835.31
2022-08-26T13:26:10.550Z,100844.75
2022-08-26T13:28:38.881Z,100855.75
2022-08-26T13:31:07.449Z,100863.16
2022-08-26T13:33:35.863Z,100872.59
2022-08-26T13:36:06.463Z,100843.34
2022-08-26T13:38:34.376Z,100843.81
2022-08-26T13:41:03.631Z,100846.69
2022-08-26T13:43:32.652Z,100811.59
2022-08-26T13:46:01.760Z,100805.78
2022-08-26T13:48:29.708Z,100815.72
2022-08-26T13:50:57.916Z,100816.78
2022-08-26T13:53:29.187Z,100818.53
2022-08-26T13:55:57.806Z,100793.25
2022-08-26T13:58:26.091Z,100784.53
2022-08-26T14:00:55.294Z,100784.09
2022-08-26T14:03:24.601Z,100782.72
2022-08-26T14:05:53.380Z,100782.72
2022-08-26T14:08:22.412Z,100778.03
2022-08-26T14:10:51.558Z,100782.81
2022-08-26T14:13:19.559Z,100797.13
2022-08-26T14:15:47.810Z,100803.59
2022-08-26T14:18:22.177Z,100795.19
2022-08-26T14:20:52.104Z,100778.06
2022-08-26T14:23:20.068Z,100786.00
2022-08-26T14:25:47.900Z,100835.63
2022-08-26T14:28:17.144Z,100871.22
2022-08-26T14:30:52.034Z,100880.53
2022-08-26T14:33:26.713Z,100877.22
2022-08-26T14:36:14.703Z,100860.38
2022-08-26T14:38:42.607Z,100870.88
2022-08-26T14:41:11.727Z,100848.78
2022-08-26T14:43:48.190Z,100831.78
2022-08-26T14:46:18.275Z,100807.97
2022-08-26T14:48:46.647Z,100788.38
2022-08-26T14:51:14.491Z,100777.75
2022-08-26T14:54:00.014Z,100771.34
2022-08-26T14:56:29.556Z,100768.97
2022-08-26T14:58:58.720Z,100772.00
2022-08-26T15:01:30.759Z,100775.53
2022-08-26T15:03:59.536Z,100776.72
2022-08-26T15:06:27.994Z,100773.03
2022-08-26T15:08:55.842Z,100783.09
2022-08-26T15:11:23.848Z,100772.63
2022-08-26T15:13:52.601Z,100745.16
2022-08-26T15:16:22.840Z,100745.97
2022-08-26T15:18:52.207Z,100725.03
2022-08-26T15:21:20.892Z,100716.03
2022-08-26T15:23:50.427Z,100696.06
2022-08-26T15:26:19.110Z,100694.44
2022-08-26T15:28:47.422Z,100682.00
2022-08-26T15:31:17.185Z,100680.78
2022-08-26T15:33:47.102Z,100671.47
2022-08-26T15:36:14.997Z,100674.28
2022-08-26T15:38:43.311Z,100667.88
2022-08-26T15:41:11.756Z,100656.66
2022-08-26T15:43:39.709Z,100661.00
2022-08-26T15:46:12.768Z,100664.16
2022-08-26T15:48:41.400Z,100662.44
2022-08-26T15:51:23.056Z,100668.88
2022-08-26T15:53:51.170Z,100663.53
2022-08-26T15:56:22.297Z,100658.28
2022-08-26T15:58:50.558Z,100663.31
2022-08-26T16:01:27.212Z,100671.34
2022-08-26T16:03:56.634Z,100666.94
2022-08-26T16:06:30.661Z,100651.53
2022-08-26T16:08:59.229Z,100662.00
2022-08-26T16:11:29.070Z,100661.88
2022-08-26T16:13:57.270Z,100656.50
2022-08-26T16:16:25.767Z,100654.72
2022-08-26T16:18:54.743Z,100665.31
2022-08-26T16:21:28.577Z,100669.03
2022-08-26T16:23:58.397Z,100662.91
2022-08-26T16:26:29.659Z,100673.91
2022-08-26T16:28:57.493Z,100665.47
2022-08-26T16:31:25.537Z,100668.09
2022-08-26T16:33:53.409Z,100664.66
2022-08-26T16:36:21.274Z,100661.34
2022-08-26T16:38:56.095Z,100662.31
2022-08-26T16:41:25.871Z,100649.94
2022-08-26T16:43:53.868Z,100657.00
2022-08-26T16:46:23.651Z,100655.38
2022-08-26T16:48:52.324Z,100655.91
2022-08-26T16:51:23.294Z,100655.63
2022-08-26T16:53:53.757Z,100666.84
2022-08-26T16:56:33.482Z,100679.72
2022-08-26T16:59:04.079Z,100683.25
2022-08-26T17:01:31.999Z,100691.34
2022-08-26T17:03:59.921Z,100692.31
2022-08-26T17:06:27.971Z,100684.34
2022-08-26T17:08:57.133Z,100684.97
2022-08-26T17:11:24.991Z,100683.25
2022-08-26T17:13:52.948Z,100685.94
2022-08-26T17:16:26.390Z,100682.19
2022-08-26T17:18:55.679Z,100691.63
2022-08-26T17:21:23.640Z,100702.50
2022-08-26T17:23:51.833Z,100694.34
2022-08-26T17:26:21.661Z,100701.63
2022-08-26T17:28:50.615Z,100704.78
2022-08-26T17:31:18.973Z,100700.22
2022-08-26T17:33:50.357Z,100701.25
2022-08-26T17:36:27.699Z,100705.56
2022-08-26T17:38:57.204Z,100701.03
2022-08-26T17:41:27.692Z,100693.00
2022-08-26T17:43:55.678Z,100690.09
2022-08-26T17:46:24.327Z,100697.44
2022-08-26T17:48:52.367Z,100689.28
2022-08-26T17:51:21.916Z,100687.06
2022-08-26T17:53:50.768Z,100692.34
2022-08-26T17:56:24.940Z,100691.06
2022-08-26T17:58:57.681Z,100688.53
2022-08-26T18:01:30.737Z,100690.28
2022-08-26T18:04:00.585Z,100697.34
2022-08-26T18:06:30.489Z,100689.53
2022-08-26T18:08:59.242Z,100685.91
2022-08-26T18:11:28.266Z,100677.94
2022-08-26T18:13:57.640Z,100676.88
2022-08-26T18:16:25.988Z,100684.91
2022-08-26T18:18:55.492Z,100682.06
2022-08-26T18:21:28.567Z,100683.41
2022-08-26T18:23:56.905Z,100671.81
2022-08-26T18:26:28.291Z,100667.31
2022-08-26T18:28:58.065Z,100670.34
2022-08-26T18:31:27.219Z,100676.13
2022-08-26T18:33:55.993Z,100680.22
2022-08-26T18:36:28.089Z,100683.63
2022-08-26T18:38:57.017Z,100677.41
2022-08-26T18:41:28.720Z,100682.19
2022-08-26T18:43:58.671Z,100676.06
2022-08-26T18:46:29.058Z,100671.00
2022-08-26T18:48:58.572Z,100666.94
2022-08-26T18:51:30.178Z,100657.47
2022-08-26T18:53:59.694Z,100643.41
2022-08-26T18:56:29.014Z,100641.41
2022-08-26T18:58:59.785Z,100645.53
2022-08-26T19:01:30.101Z,100644.03
2022-08-26T19:04:00.091Z,100639.22
2022-08-26T19:06:32.853Z,100648.63
2022-08-26T19:09:01.401Z,100649.88
2022-08-26T19:11:32.557Z,100658.72
2022-08-26T19:14:09.286Z,100666.78
2022-08-26T19:16:38.618Z,100678.44
2022-08-26T19:19:07.351Z,100676.50
2022-08-26T19:21:37.888Z,100690.06
2022-08-26T19:24:17.402Z,100692.19
2022-08-26T19:26:47.432Z,100702.91
2022-08-26T19:31:51.078Z,100707.16
2022-08-26T19:34:20.899Z,100716.66
2022-08-26T19:36:49.368Z,100723.75
2022-08-26T19:39:24.366Z,100733.50
2022-08-26T19:41:52.629Z,100729.78
2022-08-26T19:44:41.821Z,100732.84
2022-08-26T19:47:12.947Z,100726.78
2022-08-26T19:49:41.102Z,100729.66
2022-08-26T19:52:10.990Z,100730.06
2022-08-26T19:54:44.596Z,100732.81
2022-08-26T19:57:20.206Z,100738.75
2022-08-26T19:59:49.690Z,100748.91
2022-08-26T20:02:18.147Z,100739.88
2022-08-26T20:04:46.296Z,100747.78
2022-08-26T20:07:18.555Z,100746.66
2022-08-26T20:09:49.170Z,100737.97
2022-08-26T20:12:18.681Z,100730.47
2022-08-26T20:14:46.776Z,100729.53
2022-08-26T20:17:17.030Z,100726.22
2022-08-26T20:20:03.074Z,100722.53
2022-08-26T20:22:32.091Z,100727.16
2022-08-26T20:25:00.348Z,100736.34
2022-08-26T20:27:34.352Z,100732.78
2022-08-26T20:30:11.263Z,100736.13
2022-08-26T20:32:42.495Z,100748.00
2022-08-26T20:35:14.261Z,100757.16
2022-08-26T20:37:43.265Z,100744.59
2022-08-26T20:40:14.053Z,100745.69
2022-08-26T20:42:43.697Z,100747.31
2022-08-26T20:45:13.349Z,100753.25
2022-08-26T20:47:43.846Z,100751.66
2022-08-26T20:50:11.767Z,100756.44
2022-08-26T20:52:39.642Z,100760.97
2022-08-26T20:55:08.645Z,100758.81
2022-08-26T20:57:38.392Z,100766.69
2022-08-26T21:00:08.306Z,100765.00
2022-08-26T21:02:36.964Z,100781.38
2022-08-26T21:05:10.700Z,100770.13
2022-08-26T21:07:39.342Z,100765.13
2022-08-26T21:10:08.535Z,100773.22
2022-08-26T21:12:36.501Z,100773.00
2022-08-26T21:15:08.332Z,100781.22
2022-08-26T21:17:36.272Z,100760.22
2022-08-26T21:20:09.490Z,100759.06
2022-08-26T21:22:37.359Z,100747.03
2022-08-26T21:25:09.222Z,100739.34
2022-08-26T21:27:38.339Z,100733.63
2022-08-26T21:30:08.155Z,100743.44
2022-08-26T21:32:36.453Z,100743.00
2022-08-26T21:35:06.146Z,100736.25
2022-08-26T21:37:34.365Z,100731.47
2022-08-26T21:40:04.055Z,100735.75
2022-08-26T21:42:36.827Z,100733.91
2022-08-26T21:45:07.654Z,100735.78
2022-08-26T21:47:38.458Z,100738.31
2022-08-26T21:50:10.285Z,100734.50
2022-08-26T21:52:39.324Z,100741.16
2022-08-26T21:55:09.274Z,100739.56
2022-08-26T21:57:39.894Z,100734.53
2022-08-26T22:00:13.026Z,100733.78
2022-08-26T22:02:41.029Z,100732.50
2022-08-26T22:05:11.086Z,100735.78
2022-08-26T22:07:38.954Z,100745.44
2022-08-26T22:10:08.153Z,100739.50
2022-08-26T22:12:36.130Z,100732.78
2022-08-26T22:15:04.676Z,100741.06
2022-08-26T22:17:32.508Z,100747.09
2022-08-26T22:20:00.525Z,100748.38
2022-08-26T22:22:29.933Z,100746.31
2022-08-26T22:24:57.967Z,100744.69
2022-08-26T22:27:26.320Z,100741.91
2022-08-26T22:29:54.176Z,100732.19
2022-08-26T22:32:22.816Z,100731.84
2022-08-26T22:34:50.653Z,100721.38
2022-08-26T22:37:18.549Z,100717.53
2022-08-26T22:39:47.847Z,100715.56
2022-08-26T22:42:16.034Z,100711.19
2022-08-26T22:44:44.069Z,100702.72
2022-08-26T22:47:12.064Z,100703.88
2022-08-26T22:49:39.996Z,100698.88
2022-08-26T22:52:07.929Z,100694.13
2022-08-26T22:54:35.800Z,100685.66
2022-08-26T22:57:05.603Z,100681.34
2022-08-26T22:59:33.717Z,100673.75
2022-08-26T23:02:01.947Z,100667.16
2022-08-26T23:04:30.061Z,100656.41
2022-08-26T23:06:58.272Z,100657.34
2022-08-26T23:09:26.139Z,100649.31
2022-08-26T23:11:55.869Z,100641.91
2022-08-26T23:14:26.961Z,100651.22
2022-08-26T23:16:55.084Z,100649.25
2022-08-26T23:19:24.364Z,100648.72
2022-08-26T23:21:52.869Z,100654.00
2022-08-26T23:24:21.104Z,100676.44
2022-08-26T23:26:50.001Z,100703.38
2022-08-26T23:29:18.093Z,100703.47
2022-08-26T23:31:47.562Z,100697.53
2022-08-26T23:34:33.021Z,100683.75
2022-08-26T23:37:01.263Z,100693.47
2022-08-26T23:39:29.466Z,100688.50
2022-08-26T23:41:58.017Z,100684.56
2022-08-26T23:44:26.632Z,100688.50
2022-08-26T23:46:56.420Z,100683.38
2022-08-26T23:49:25.371Z,100685.84
2022-08-26T23:52:11.501Z,100681.88
2022-08-26T23:54:40.505Z,100681.03
2022-08-26T23:57:09.328Z,100685.16
2022-08-26T23:59:38.563Z,100691.97
